Time;durP1;ratioP1;P1;durP2;ratioP2;P2;SDS_P1;SDS_P2;PMS_P1;PMS_P2;Temp;Humidity;BMP_temperature;BMP_pressure;BME280_temperature;BME280_humidity;BME280_pressure;Samples;Min_cycle;Max_cycle;Signal;HPM_P1;HPM_P2
2022/03/27 00:00:38;;;;;;;16.10;9.07;;;;;;;-139.48;100.00;61774.03;5006962;28;20163;-70
2022/03/27 00:03:22;;;;;;;18.45;9.50;;;;;;;-139.48;100.00;61774.03;5020498;28;20443;-70
2022/03/27 00:06:06;;;;;;;23.85;9.70;;;;;;;-139.48;100.00;61774.03;5035408;28;20067;-70
2022/03/27 00:08:50;;;;;;;19.92;10.45;;;;;;;-139.48;100.00;61774.03;5020930;28;20056;-70
2022/03/27 00:11:34;;;;;;;25.77;10.85;;;;;;;-139.48;100.00;61774.03;5006772;28;20057;-71
2022/03/27 00:14:18;;;;;;;21.48;9.88;;;;;;;-139.48;100.00;61774.03;5020638;28;20048;-70
2022/03/27 00:17:02;;;;;;;22.38;11.90;;;;;;;-139.48;100.00;61774.03;5020529;28;20048;-70
2022/03/27 00:19:46;;;;;;;21.98;10.40;;;;;;;-139.48;100.00;61774.03;5006514;28;20052;-70
2022/03/27 00:22:30;;;;;;;19.80;10.75;;;;;;;-139.48;100.00;61774.03;5035603;28;20155;-70
2022/03/27 00:25:13;;;;;;;25.63;9.80;;;;;;;-139.48;100.00;61774.03;5006692;28;20048;-70
2022/03/27 00:27:58;;;;;;;22.27;10.50;;;;;;;-139.48;100.00;61774.03;5020121;28;20489;-70
2022/03/27 00:30:42;;;;;;;26.27;10.73;;;;;;;-139.48;100.00;61774.03;5020241;28;20508;-70
2022/03/27 00:33:27;;;;;;;21.98;10.25;;;;;;;-139.48;100.00;61774.03;5020163;28;20095;-70
2022/03/27 00:36:13;;;;;;;21.98;11.82;;;;;;;-139.48;100.00;61774.03;5020101;28;20573;-70
2022/03/27 00:38:57;;;;;;;26.85;11.45;;;;;;;-139.48;100.00;61774.03;5006241;28;20052;-69
2022/03/27 00:41:43;;;;;;;23.45;11.32;;;;;;;-139.48;100.00;61774.03;5034858;28;20172;-70
2022/03/27 00:44:27;;;;;;;24.42;11.02;;;;;;;-139.48;100.00;61774.03;5019740;28;20056;-70
2022/03/27 00:47:11;;;;;;;28.52;10.90;;;;;;;-139.48;100.00;61774.03;5034458;28;20501;-69
2022/03/27 00:49:54;;;;;;;30.60;11.43;;;;;;;-139.48;100.00;61774.03;5019609;28;20044;-69
2022/03/27 00:52:38;;;;;;;22.77;11.02;;;;;;;-139.48;100.00;61774.03;5034663;28;20084;-70
2022/03/27 00:55:23;;;;;;;23.10;11.48;;;;;;;-139.48;100.00;61774.03;5005851;28;20052;-69
2022/03/27 00:58:08;;;;;;;22.67;11.35;;;;;;;-139.48;100.00;61774.03;5034732;28;20052;-69
2022/03/27 01:01:05;;;;;;;21.67;11.30;;;;;;;-139.48;100.00;61774.03;5019561;28;20132;-70
2022/03/27 01:03:49;;;;;;;24.10;10.52;;;;;;;-139.48;100.00;61774.03;5005538;28;20045;-70
2022/03/27 01:06:36;;;;;;;26.45;10.32;;;;;;;-139.48;100.00;61774.03;5019576;28;20049;-70
2022/03/27 01:09:35;;;;;;;22.35;10.10;;;;;;;-139.48;100.00;61774.03;5019550;28;20048;-70
2022/03/27 01:12:21;;;;;;;26.15;11.20;;;;;;;-139.48;100.00;61774.03;5033978;28;20071;-70
2022/03/27 01:15:13;;;;;;;29.20;10.52;;;;;;;-139.48;100.00;61774.03;5019396;28;20516;-70
2022/03/27 01:17:58;;;;;;;24.75;11.75;;;;;;;-139.48;100.00;61774.03;5034373;28;20476;-70
2022/03/27 01:20:42;;;;;;;21.42;10.43;;;;;;;-139.48;100.00;61774.03;5005372;28;20047;-70
2022/03/27 01:23:26;;;;;;;26.23;11.65;;;;;;;-139.48;100.00;61774.03;5033971;28;20052;-70
2022/03/27 01:26:10;;;;;;;24.05;11.05;;;;;;;-139.48;100.00;61774.03;5018874;28;20057;-69
2022/03/27 01:28:54;;;;;;;24.35;11.48;;;;;;;-139.48;100.00;61774.03;5034451;28;20071;-70
2022/03/27 01:31:38;;;;;;;25.33;12.13;;;;;;;-139.48;100.00;61774.03;5018767;28;20071;-70
2022/03/27 01:34:22;;;;;;;24.83;12.13;;;;;;;-139.48;100.00;61774.03;5005332;28;20052;-70
2022/03/27 01:37:08;;;;;;;24.45;10.73;;;;;;;-139.48;100.00;61774.03;5019085;28;20076;-70
2022/03/27 01:39:52;;;;;;;24.88;10.82;;;;;;;-139.48;100.00;61774.03;5019331;28;20048;-70
2022/03/27 01:42:36;;;;;;;30.25;11.80;;;;;;;-139.48;100.00;61774.03;5018717;28;20095;-69
2022/03/27 01:45:20;;;;;;;21.85;11.30;;;;;;;-139.48;100.00;61774.03;5018884;28;20047;-70
2022/03/27 01:48:04;;;;;;;22.42;10.57;;;;;;;-139.48;100.00;61774.03;5004976;28;20048;-69
2022/03/27 01:50:59;;;;;;;21.65;11.38;;;;;;;-139.48;100.00;61774.03;5018847;28;20087;-70
2022/03/27 01:53:43;;;;;;;20.27;9.98;;;;;;;-139.48;100.00;61774.03;5033177;28;20460;-69
2022/03/27 01:56:27;;;;;;;25.45;12.15;;;;;;;-139.48;100.00;61774.03;5018758;28;20408;-70
2022/03/27 01:59:11;;;;;;;27.58;11.07;;;;;;;-139.48;100.00;61774.03;5018563;28;20068;-69
2022/03/27 02:01:55;;;;;;;22.65;11.25;;;;;;;-139.48;100.00;61774.03;5033831;28;20044;-69
2022/03/27 02:04:39;;;;;;;21.38;11.20;;;;;;;-139.48;100.00;61774.03;5018336;28;20055;-70
2022/03/27 02:07:23;;;;;;;25.42;11.25;;;;;;;-139.48;100.00;61774.03;5018480;28;20436;-70
2022/03/27 02:10:07;;;;;;;20.88;10.90;;;;;;;-139.48;100.00;61774.03;5033861;28;20052;-69
2022/03/27 02:12:51;;;;;;;23.38;11.73;;;;;;;-139.48;100.00;61774.03;5004397;28;20124;-70
2022/03/27 02:15:35;;;;;;;22.88;11.02;;;;;;;-139.48;100.00;61774.03;5004547;28;20056;-69
2022/03/27 02:18:19;;;;;;;22.88;12.43;;;;;;;-139.48;100.00;61774.03;5018569;28;20156;-70
2022/03/27 02:21:03;;;;;;;25.55;12.30;;;;;;;-139.48;100.00;61774.03;5018242;28;20052;-69
2022/03/27 02:23:47;;;;;;;23.52;12.07;;;;;;;-139.48;100.00;61774.03;5018644;28;20056;-70
2022/03/27 02:26:32;;;;;;;24.40;12.30;;;;;;;-139.48;100.00;61774.03;5018367;28;20476;-70
2022/03/27 02:29:16;;;;;;;25.95;12.35;;;;;;;-139.48;100.00;61774.03;5018487;28;20088;-69
2022/03/27 02:32:00;;;;;;;27.88;12.82;;;;;;;-139.48;100.00;61774.03;5032990;28;20103;-70
2022/03/27 02:34:45;;;;;;;26.42;12.20;;;;;;;-139.48;100.00;61774.03;5033336;28;20048;-70
2022/03/27 02:37:28;;;;;;;25.30;12.82;;;;;;;-139.48;100.00;61774.03;5018395;28;20048;-69
2022/03/27 02:40:12;;;;;;;26.58;11.52;;;;;;;-139.48;100.00;61774.03;5018402;28;20052;-70
2022/03/27 02:42:59;;;;;;;22.83;11.80;;;;;;;-139.48;100.00;61774.03;5032944;28;20076;-70
2022/03/27 02:45:42;;;;;;;24.35;11.40;;;;;;;-139.48;100.00;61774.03;5018394;28;20068;-69
2022/03/27 02:48:26;;;;;;;26.70;12.45;;;;;;;-139.48;100.00;61774.03;5018499;28;20511;-70
2022/03/27 02:51:11;;;;;;;19.38;11.25;;;;;;;-139.48;100.00;61774.03;5018115;28;20052;-69
2022/03/27 02:53:54;;;;;;;21.30;11.05;;;;;;;-139.48;100.00;61774.03;5017920;28;20135;-69
2022/03/27 02:56:39;;;;;;;21.17;12.25;;;;;;;-139.48;100.00;61774.03;5017922;28;20052;-70
2022/03/27 02:59:24;;;;;;;23.08;12.13;;;;;;;-139.48;100.00;61774.03;5033088;28;20048;-69
2022/03/27 03:02:09;;;;;;;20.73;12.52;;;;;;;-139.48;100.00;61774.03;5017719;28;20100;-69
2022/03/27 03:04:55;;;;;;;26.50;12.90;;;;;;;-139.48;100.00;61774.03;5020400;28;20452;-70
2022/03/27 03:07:42;;;;;;;25.55;11.35;;;;;;;-139.48;100.00;61774.03;5036518;28;20076;-70
2022/03/27 03:10:26;;;;;;;20.02;11.90;;;;;;;-139.48;100.00;61774.03;5022126;28;20053;-69
2022/03/27 03:13:11;;;;;;;19.67;11.68;;;;;;;-139.48;100.00;61774.03;5008716;28;20413;-70
2022/03/27 03:15:55;;;;;;;23.80;11.60;;;;;;;-139.48;100.00;61774.03;5021411;28;20048;-70
2022/03/27 03:18:39;;;;;;;26.55;12.45;;;;;;;-139.48;100.00;61774.03;5007492;28;20064;-70
2022/03/27 03:21:24;;;;;;;20.48;12.13;;;;;;;-139.48;100.00;61774.03;5021789;28;20048;-69
2022/03/27 03:24:09;;;;;;;21.80;12.32;;;;;;;-139.48;100.00;61774.03;5036242;28;20519;-70
2022/03/27 03:26:54;;;;;;;22.38;12.27;;;;;;;-139.48;100.00;61774.03;5036427;28;20048;-69
2022/03/27 03:29:38;;;;;;;25.33;11.75;;;;;;;-139.48;100.00;61774.03;5021261;28;20539;-70
2022/03/27 03:32:23;;;;;;;20.75;11.30;;;;;;;-139.48;100.00;61774.03;5021237;28;20064;-70
2022/03/27 03:35:08;;;;;;;24.83;11.27;;;;;;;-139.48;100.00;61774.03;5036379;28;20072;-70
2022/03/27 03:37:52;;;;;;;23.88;12.55;;;;;;;-139.48;100.00;61774.03;5036008;28;20072;-70
2022/03/27 03:40:37;;;;;;;23.38;12.02;;;;;;;-139.48;100.00;61774.03;5021309;28;20106;-70
2022/03/27 03:43:21;;;;;;;20.60;11.48;;;;;;;-139.48;100.00;61774.03;5035871;28;20056;-69
2022/03/27 03:46:06;;;;;;;21.13;10.90;;;;;;;-139.48;100.00;61774.03;5036060;28;20080;-70
2022/03/27 03:48:50;;;;;;;21.50;12.05;;;;;;;-139.48;100.00;61774.03;5007167;28;20047;-69
2022/03/27 03:51:35;;;;;;;22.33;11.43;;;;;;;-139.48;100.00;61774.03;5006909;28;20421;-69
2022/03/27 03:54:19;;;;;;;20.25;11.05;;;;;;;-139.48;100.00;61774.03;5020821;28;20136;-70
2022/03/27 03:57:05;;;;;;;19.83;11.52;;;;;;;-139.48;100.00;61774.03;5020715;28;20417;-70
2022/03/27 03:59:48;;;;;;;21.90;11.48;;;;;;;-139.48;100.00;61774.03;5035857;28;20052;-70
2022/03/27 04:02:33;;;;;;;21.98;11.55;;;;;;;-139.48;100.00;61774.03;5006754;28;20076;-69
2022/03/27 04:05:17;;;;;;;23.10;12.00;;;;;;;-139.48;100.00;61774.03;5020665;28;20126;-69
2022/03/27 04:08:01;;;;;;;21.83;11.27;;;;;;;-139.48;100.00;61774.03;5035731;28;20079;-70
2022/03/27 04:10:45;;;;;;;17.58;10.45;;;;;;;-139.48;100.00;61774.03;5020408;28;20049;-70
2022/03/27 04:13:30;;;;;;;18.55;10.93;;;;;;;-139.48;100.00;61774.03;5020290;28;20084;-70
2022/03/27 04:16:13;;;;;;;20.17;10.18;;;;;;;-139.48;100.00;61774.03;5019994;28;20048;-70
2022/03/27 04:18:57;;;;;;;20.17;11.50;;;;;;;-139.48;100.00;61774.03;5020530;28;20262;-70
2022/03/27 04:21:42;;;;;;;26.95;12.57;;;;;;;-139.48;100.00;61774.03;5035136;28;20507;-70
2022/03/27 04:24:27;;;;;;;22.40;11.05;;;;;;;-139.48;100.00;61774.03;5020578;28;20524;-69
2022/03/27 04:27:11;;;;;;;25.67;12.57;;;;;;;-139.48;100.00;61774.03;5020559;28;20555;-69
2022/03/27 04:29:55;;;;;;;18.23;11.10;;;;;;;-139.48;100.00;61774.03;5006473;28;20075;-69
2022/03/27 04:32:40;;;;;;;24.60;12.38;;;;;;;-139.48;100.00;61774.03;5035055;28;20103;-69
2022/03/27 04:35:24;;;;;;;19.30;11.05;;;;;;;-139.48;100.00;61774.03;5006641;28;20091;-70
2022/03/27 04:38:08;;;;;;;22.17;12.60;;;;;;;-139.48;100.00;61774.03;5020190;28;20555;-69
2022/03/27 04:40:52;;;;;;;21.88;11.65;;;;;;;-139.48;100.00;61774.03;5006286;28;20048;-69
2022/03/27 04:43:35;;;;;;;19.45;11.45;;;;;;;-139.48;100.00;61774.03;5034701;28;20535;-70
2022/03/27 04:46:20;;;;;;;23.30;11.75;;;;;;;-139.48;100.00;61774.03;5034695;28;20041;-70
2022/03/27 04:49:04;;;;;;;26.50;11.98;;;;;;;-139.48;100.00;61774.03;5019945;28;20052;-69
2022/03/27 04:51:49;;;;;;;25.15;11.48;;;;;;;-139.48;100.00;61774.03;5019714;28;20416;-69
2022/03/27 04:54:34;;;;;;;22.15;11.43;;;;;;;-139.48;100.00;61774.03;5034865;28;20464;-69
2022/03/27 04:57:18;;;;;;;18.90;11.25;;;;;;;-139.48;100.00;61774.03;5035038;28;20052;-70
2022/03/27 05:00:03;;;;;;;26.00;11.27;;;;;;;-139.48;100.00;61774.03;5034719;28;20124;-70
2022/03/27 05:02:47;;;;;;;20.48;11.05;;;;;;;-139.48;100.00;61774.03;5019449;28;20095;-70
2022/03/27 05:05:31;;;;;;;19.77;10.50;;;;;;;-139.48;100.00;61774.03;5019260;28;20049;-70
2022/03/27 05:08:15;;;;;;;23.08;10.52;;;;;;;-139.48;100.00;61774.03;5005781;28;20053;-70
2022/03/27 05:10:59;;;;;;;22.20;11.85;;;;;;;-139.48;100.00;61774.03;5019570;28;20092;-69
2022/03/27 05:13:43;;;;;;;23.92;11.15;;;;;;;-139.48;100.00;61774.03;5019519;28;20048;-69
2022/03/27 05:16:27;;;;;;;21.10;10.75;;;;;;;-139.48;100.00;61774.03;5019214;28;20099;-70
2022/03/27 05:19:10;;;;;;;19.65;10.80;;;;;;;-139.48;100.00;61774.03;5019381;28;20447;-70
2022/03/27 05:21:55;;;;;;;22.65;11.45;;;;;;;-139.48;100.00;61774.03;5019044;28;20107;-69
2022/03/27 05:24:39;;;;;;;18.02;10.88;;;;;;;-139.48;100.00;61774.03;5019040;28;20048;-70
2022/03/27 05:27:23;;;;;;;20.35;12.07;;;;;;;-139.48;100.00;61774.03;5033149;28;20146;-69
2022/03/27 05:30:10;;;;;;;17.88;10.30;;;;;;;-139.48;100.00;61774.03;5019280;28;20107;-69
2022/03/27 05:32:54;;;;;;;23.35;11.52;;;;;;;-139.48;100.00;61774.03;5033819;28;20051;-70
2022/03/27 05:35:40;;;;;;;29.77;12.85;;;;;;;-139.48;100.00;61774.03;5018837;28;20048;-70
2022/03/27 05:38:24;;;;;;;24.50;11.95;;;;;;;-139.48;100.00;61774.03;5019353;28;20102;-70
2022/03/27 05:41:09;;;;;;;18.65;10.82;;;;;;;-139.48;100.00;61774.03;5019095;28;20600;-69
2022/03/27 05:43:53;;;;;;;22.60;12.65;;;;;;;-139.48;100.00;61774.03;5018718;28;20107;-69
2022/03/27 05:46:37;;;;;;;27.02;12.45;;;;;;;-139.48;100.00;61774.03;5018908;28;20467;-69
2022/03/27 05:49:21;;;;;;;20.83;12.35;;;;;;;-139.48;100.00;61774.03;5018632;28;20420;-69
2022/03/27 05:52:05;;;;;;;27.95;13.50;;;;;;;-139.48;100.00;61774.03;5018569;28;20052;-70
2022/03/27 05:54:51;;;;;;;20.35;11.10;;;;;;;-139.48;100.00;61774.03;5018575;28;20099;-69
2022/03/27 05:57:34;;;;;;;19.90;11.60;;;;;;;-139.48;100.00;61774.03;5018587;28;20107;-69
2022/03/27 06:00:20;;;;;;;23.13;11.98;;;;;;;-139.48;100.00;61774.03;5033704;28;20056;-69
2022/03/27 06:03:04;;;;;;;25.75;13.27;;;;;;;-139.48;100.00;61774.03;5033880;28;20055;-70
2022/03/27 06:05:49;;;;;;;20.33;12.77;;;;;;;-139.48;100.00;61774.03;5018557;28;20176;-69
2022/03/27 06:08:33;;;;;;;26.95;14.50;;;;;;;-139.48;100.00;61774.03;5033570;28;20047;-70
2022/03/27 06:11:17;;;;;;;26.00;14.32;;;;;;;-139.48;100.00;61774.03;5033473;28;20083;-70
2022/03/27 06:14:01;;;;;;;24.40;12.43;;;;;;;-139.48;100.00;61774.03;5004761;28;20072;-70
2022/03/27 06:16:45;;;;;;;20.00;12.48;;;;;;;-139.48;100.00;61774.03;5004966;28;20048;-70
2022/03/27 06:19:30;;;;;;;24.80;11.95;;;;;;;-139.48;100.00;61774.03;5018532;28;20084;-69
2022/03/27 06:22:14;;;;;;;25.02;13.43;;;;;;;-139.48;100.00;61774.03;5033100;28;20087;-69
2022/03/27 06:24:58;;;;;;;22.88;13.35;;;;;;;-139.48;100.00;61774.03;5033394;28;20064;-70
2022/03/27 06:27:43;;;;;;;19.25;12.57;;;;;;;-139.48;100.00;61774.03;5018202;28;20049;-70
2022/03/27 06:30:28;;;;;;;22.73;12.48;;;;;;;-139.48;100.00;61774.03;5018145;28;20140;-69
2022/03/27 06:33:14;;;;;;;23.20;12.88;;;;;;;-139.48;100.00;61774.03;5018095;28;20124;-69
2022/03/27 06:36:01;;;;;;;22.58;12.57;;;;;;;-139.48;100.00;61774.03;5018435;28;20509;-70
2022/03/27 06:38:45;;;;;;;29.05;12.68;;;;;;;-139.48;100.00;61774.03;5033826;28;20052;-69
2022/03/27 06:41:29;;;;;;;20.50;12.57;;;;;;;-139.48;100.00;61774.03;5008394;28;20056;-70
2022/03/27 06:44:13;;;;;;;21.55;12.85;;;;;;;-139.48;100.00;61774.03;5022327;28;20421;-69
2022/03/27 06:46:57;;;;;;;;;;;;;;;-139.48;100.00;61774.03;5037349;28;20048;-69
2022/03/27 06:49:41;;;;;;;26.25;13.88;;;;;;;-139.48;100.00;61774.03;5022231;28;20059;-69
2022/03/27 06:52:27;;;;;;;21.80;12.68;;;;;;;-139.48;100.00;61774.03;5008238;28;20188;-69
2022/03/27 06:55:11;;;;;;;23.85;12.68;;;;;;;-139.48;100.00;61774.03;5036808;28;20113;-69
2022/03/27 06:57:56;;;;;;;20.38;12.80;;;;;;;-139.48;100.00;61774.03;5021882;28;20133;-69
2022/03/27 07:03:43;;;;;;;22.45;12.00;;;;;;;-139.48;100.00;61774.03;5024509;28;20044;-69
2022/03/27 07:06:26;;;;;;;20.08;11.32;;;;;;;-139.48;100.00;61774.03;5021837;28;20555;-69
2022/03/27 07:09:12;;;;;;;24.23;12.05;;;;;;;-139.48;100.00;61774.03;5036857;28;20523;-69
2022/03/27 07:11:56;;;;;;;18.83;11.95;;;;;;;-139.48;100.00;61774.03;5021776;28;20492;-70
2022/03/27 07:14:40;;;;;;;21.95;12.10;;;;;;;-139.48;100.00;61774.03;5021482;28;20508;-69
2022/03/27 07:17:25;;;;;;;22.65;12.13;;;;;;;-139.48;100.00;61774.03;5036439;28;20072;-69
2022/03/27 07:20:10;;;;;;;18.27;11.73;;;;;;;-139.48;100.00;61774.03;5007952;28;20080;-70
2022/03/27 07:22:57;;;;;;;19.38;11.70;;;;;;;-139.48;100.00;61774.03;5036554;28;20403;-69
2022/03/27 07:25:44;;;;;;;23.63;12.13;;;;;;;-139.48;100.00;61774.03;5007739;28;20048;-70
2022/03/27 07:28:30;;;;;;;23.52;11.63;;;;;;;-139.48;100.00;61774.03;5021469;28;20127;-69
2022/03/27 07:31:15;;;;;;;21.00;12.07;;;;;;;-139.48;100.00;61774.03;5036683;28;20083;-70
2022/03/27 07:33:58;;;;;;;27.58;13.13;;;;;;;-139.48;100.00;61774.03;5021161;28;20416;-69
2022/03/27 07:36:42;;;;;;;24.35;14.38;;;;;;;-139.48;100.00;61774.03;5021097;28;20136;-69
2022/03/27 07:39:26;;;;;;;26.13;13.35;;;;;;;-139.48;100.00;61774.03;5036546;28;20069;-69
2022/03/27 07:42:10;;;;;;;24.77;13.63;;;;;;;-139.48;100.00;61774.03;5036178;28;20044;-69
2022/03/27 07:44:54;;;;;;;21.85;13.02;;;;;;;-139.48;100.00;61774.03;5006971;28;20048;-69
2022/03/27 07:47:38;;;;;;;26.85;13.40;;;;;;;-139.48;100.00;61774.03;5021111;28;20408;-69
2022/03/27 07:50:23;;;;;;;26.77;14.05;;;;;;;-139.48;100.00;61774.03;5006238;28;20067;-69
2022/03/27 07:53:07;;;;;;;19.77;12.98;;;;;;;-139.48;100.00;61774.03;5020982;28;20044;-70
2022/03/27 07:55:51;;;;;;;22.30;13.65;;;;;;;-139.48;100.00;61774.03;5020845;28;20117;-70
2022/03/27 07:58:36;;;;;;;;;;;;;;;-139.48;100.00;61774.03;5021150;28;20103;-70
2022/03/27 08:01:22;;;;;;;20.48;12.07;;;;;;;-139.48;100.00;61774.03;5020681;28;19919;-70
2022/03/27 08:04:06;;;;;;;21.27;13.02;;;;;;;-139.48;100.00;61774.03;5035772;28;20562;-70
2022/03/27 08:06:51;;;;;;;23.17;13.05;;;;;;;-139.48;100.00;61774.03;5020663;28;20504;-70
2022/03/27 08:09:35;;;;;;;25.13;12.68;;;;;;;-139.48;100.00;61774.03;5035433;28;20048;-69
2022/03/27 08:12:20;;;;;;;21.48;12.23;;;;;;;-139.48;100.00;61774.03;5020400;28;20088;-69
2022/03/27 08:15:05;;;;;;;22.67;12.65;;;;;;;-139.48;100.00;61774.03;5007036;28;20064;-69
2022/03/27 08:17:54;;;;;;;21.20;11.93;;;;;;;-139.48;100.00;61774.03;5020600;28;20060;-70
2022/03/27 08:20:39;;;;;;;18.58;12.65;;;;;;;-139.48;100.00;61774.03;5035250;28;20611;-70
2022/03/27 08:23:22;;;;;;;20.45;11.60;;;;;;;-139.48;100.00;61774.03;5035100;28;20110;-69
2022/03/27 08:29:09;;;;;;;22.35;12.13;;;;;;;-139.48;100.00;61774.03;5035302;28;20076;-70
2022/03/27 08:31:53;;;;;;;26.40;12.20;;;;;;;-139.48;100.00;61774.03;5020221;28;20139;-69
2022/03/27 08:34:38;;;;;;;20.42;11.45;;;;;;;-139.48;100.00;61774.03;5020190;28;20048;-69
2022/03/27 08:37:22;;;;;;;19.10;11.60;;;;;;;-139.48;100.00;61774.03;5006137;28;20092;-69
2022/03/27 08:40:06;;;;;;;19.25;12.43;;;;;;;-139.48;100.00;61774.03;5035102;28;20043;-70
2022/03/27 08:42:50;;;;;;;21.75;11.10;;;;;;;-139.48;100.00;61774.03;5019807;28;20209;-70
2022/03/27 08:45:34;;;;;;;23.40;12.93;;;;;;;-139.48;100.00;61774.03;5019713;28;20048;-69
2022/03/27 08:48:18;;;;;;;20.95;12.48;;;;;;;-139.48;100.00;61774.03;5006242;28;20056;-68
2022/03/27 08:51:08;;;;;;;19.48;11.55;;;;;;;-139.48;100.00;61774.03;5005832;28;20052;-69
2022/03/27 08:54:13;;;;;;;21.27;11.23;;;;;;;-139.48;100.00;61774.03;5034857;28;20429;-69
2022/03/27 08:57:02;;;;;;;;;;;;;;;-139.48;100.00;61774.03;5020238;28;20043;-69
2022/03/27 08:59:47;;;;;;;18.92;11.20;;;;;;;-139.48;100.00;61774.03;5019874;28;20284;-69
2022/03/27 09:02:31;;;;;;;20.45;12.63;;;;;;;-139.48;100.00;61774.03;5019596;28;20060;-69
2022/03/27 09:05:16;;;;;;;20.52;11.48;;;;;;;-139.48;100.00;61774.03;5005733;28;20048;-69
2022/03/27 09:08:03;;;;;;;19.60;11.63;;;;;;;-139.48;100.00;61774.03;5034331;28;20132;-69
2022/03/27 09:10:49;;;;;;;20.48;12.73;;;;;;;-139.48;100.00;61774.03;5019651;28;20132;-69
2022/03/27 09:13:33;;;;;;;22.15;11.32;;;;;;;-139.48;100.00;61774.03;5035257;28;20052;-71
2022/03/27 09:16:17;;;;;;;19.65;11.05;;;;;;;-139.48;100.00;61774.03;5034196;28;20053;-71
2022/03/27 09:19:01;;;;;;;25.55;11.90;;;;;;;-139.48;100.00;61774.03;5034328;28;20043;-71
2022/03/27 09:21:51;;;;;;;25.00;11.15;;;;;;;-139.48;100.00;61774.03;5019646;28;20049;-71
2022/03/27 09:24:35;;;;;;;20.25;11.82;;;;;;;-139.48;100.00;61774.03;5019289;28;20464;-71
2022/03/27 09:27:31;;;;;;;22.58;11.52;;;;;;;-139.48;100.00;61774.03;5034281;28;20076;-71
2022/03/27 09:30:15;;;;;;;21.52;11.25;;;;;;;-139.48;100.00;61774.03;5019237;28;20063;-71
2022/03/27 09:32:58;;;;;;;20.23;12.38;;;;;;;-139.48;100.00;61774.03;5019199;28;20484;-71
2022/03/27 09:35:42;;;;;;;22.05;12.15;;;;;;;-139.48;100.00;61774.03;5034113;28;20047;-71
2022/03/27 09:38:26;;;;;;;21.85;11.25;;;;;;;-139.48;100.00;61774.03;5033826;28;20413;-71
2022/03/27 09:41:32;;;;;;;21.30;11.60;;;;;;;-139.48;100.00;61774.03;5018712;28;20535;-71
2022/03/27 09:44:24;;;;;;;20.42;10.40;;;;;;;-139.48;100.00;61774.03;5018882;28;20048;-71
2022/03/27 09:47:12;;;;;;;18.10;11.30;;;;;;;-139.48;100.00;61774.03;5018846;28;20107;-71
2022/03/27 09:49:56;;;;;;;18.38;10.50;;;;;;;-139.48;100.00;61774.03;5005226;28;20567;-71
2022/03/27 09:52:41;;;;;;;17.95;11.00;;;;;;;-139.48;100.00;61774.03;5018483;28;20179;-72
2022/03/27 09:55:25;;;;;;;18.65;11.32;;;;;;;-139.48;100.00;61774.03;5019124;28;20094;-72
2022/03/27 09:58:09;;;;;;;;;;;;;;;-139.48;100.00;61774.03;5005404;28;20531;-72
2022/03/27 10:01:13;;;;;;;18.83;10.93;;;;;;;-139.48;100.00;61774.03;5033481;28;19920;-72
2022/03/27 10:04:03;;;;;;;22.00;12.18;;;;;;;-139.48;100.00;61774.03;5033669;28;20048;-72
2022/03/27 10:06:47;;;;;;;19.58;10.50;;;;;;;-139.48;100.00;61774.03;5018406;28;20052;-72
2022/03/27 10:09:34;;;;;;;18.33;12.45;;;;;;;-139.48;100.00;61774.03;5018563;28;20095;-72
2022/03/27 10:12:25;;;;;;;17.98;11.75;;;;;;;-139.48;100.00;61774.03;5018829;28;20417;-72
2022/03/27 10:15:14;;;;;;;15.38;11.13;;;;;;;-139.48;100.00;61774.03;5017726;28;20044;-72
2022/03/27 10:18:03;;;;;;;20.33;13.38;;;;;;;-139.48;100.00;61774.03;5018552;28;20048;-70
2022/03/27 10:20:54;;;;;;;17.88;12.25;;;;;;;-139.48;100.00;61774.03;5018542;28;20132;-70
2022/03/27 10:23:39;;;;;;;16.02;11.65;;;;;;;-139.48;100.00;61774.03;5032915;28;20045;-70
2022/03/27 10:26:24;;;;;;;19.27;12.02;;;;;;;-139.48;100.00;61774.03;5018179;28;20366;-70
2022/03/27 10:29:09;;;;;;;19.00;12.73;;;;;;;-139.48;100.00;61774.03;5018648;28;20080;-70
2022/03/27 10:31:53;;;;;;;17.60;12.48;;;;;;;-139.48;100.00;61774.03;5018183;28;20048;-70
2022/03/27 10:35:09;;;;;;;17.73;12.80;;;;;;;-139.48;100.00;61774.03;5018391;28;20044;-70
2022/03/27 10:38:26;;;;;;;20.88;11.68;;;;;;;-139.48;100.00;61774.03;5033088;28;20103;-73
2022/03/27 10:41:17;;;;;;;16.17;12.32;;;;;;;-139.48;100.00;61774.03;5018236;28;20129;-70
2022/03/27 10:44:26;;;;;;;18.48;12.80;;;;;;;-139.48;100.00;61774.03;5018310;28;20076;-70
2022/03/27 10:47:11;;;;;;;17.30;13.00;;;;;;;-139.48;100.00;61774.03;5018053;28;20049;-70
2022/03/27 10:50:02;;;;;;;21.90;12.77;;;;;;;-139.48;100.00;61774.03;5018147;28;20420;-70
2022/03/27 10:52:52;;;;;;;18.80;12.68;;;;;;;-139.48;100.00;61774.03;5033195;28;20127;-70
2022/03/27 10:55:42;;;;;;;24.70;13.90;;;;;;;-139.48;100.00;61774.03;5018245;28;20064;-70
2022/03/27 10:58:34;;;;;;;17.40;13.60;;;;;;;-139.48;100.00;61774.03;5018001;28;20049;-70
2022/03/27 11:01:21;;;;;;;17.95;12.18;;;;;;;-139.48;100.00;61774.03;5018057;28;20133;-70
2022/03/27 11:04:09;;;;;;;17.98;12.43;;;;;;;-139.48;100.00;61774.03;5033120;28;20124;-70
2022/03/27 11:07:16;;;;;;;17.13;13.15;;;;;;;-139.48;100.00;61774.03;5032740;28;20523;-70
2022/03/27 11:10:00;;;;;;;19.60;13.70;;;;;;;-139.48;100.00;61774.03;5033033;28;20048;-70
2022/03/27 11:12:43;;;;;;;18.50;13.40;;;;;;;-139.48;100.00;61774.03;5017719;28;20048;-70
2022/03/27 11:16:05;;;;;;;23.83;14.00;;;;;;;-139.48;100.00;61774.03;5018012;28;20052;-70
2022/03/27 11:18:50;;;;;;;19.65;12.88;;;;;;;-139.48;100.00;61774.03;5017727;28;20167;-71
2022/03/27 11:21:46;;;;;;;22.65;13.75;;;;;;;-139.48;100.00;61774.03;5017662;28;20107;-70
2022/03/27 11:24:30;;;;;;;25.27;13.52;;;;;;;-139.48;100.00;61774.03;5003963;28;20140;-72
2022/03/27 11:27:52;;;;;;;26.58;13.07;;;;;;;-139.48;100.00;61774.03;5007474;28;20563;-73
2022/03/27 11:30:45;;;;;;;18.50;11.98;;;;;;;-139.48;100.00;61774.03;5036453;28;20516;-71
2022/03/27 11:33:30;;;;;;;;;;;;;;;-139.48;100.00;61774.03;5036516;28;20048;-70
2022/03/27 11:36:17;;;;;;;18.33;12.73;;;;;;;-139.48;100.00;61774.03;5021317;28;19936;-70
2022/03/27 11:39:04;;;;;;;19.63;13.63;;;;;;;-139.48;100.00;61774.03;5036617;28;20103;-70
2022/03/27 11:41:48;;;;;;;24.40;13.45;;;;;;;-139.48;100.00;61774.03;5035904;28;20056;-70
2022/03/27 11:47:43;;;;;;;24.63;13.00;;;;;;;-139.48;100.00;61774.03;5023634;28;20452;-70
2022/03/27 11:50:32;;;;;;;17.92;13.07;;;;;;;-139.48;100.00;61774.03;5036080;28;20053;-71
2022/03/27 11:53:16;;;;;;;20.75;12.40;;;;;;;-139.48;100.00;61774.03;5020792;28;20127;-71
2022/03/27 11:56:08;;;;;;;18.45;12.45;;;;;;;-139.48;100.00;61774.03;5035765;28;20044;-70
2022/03/27 11:59:05;;;;;;;22.23;12.63;;;;;;;-139.48;100.00;61774.03;5021070;28;20056;-72
2022/03/27 12:01:51;;;;;;;20.80;12.65;;;;;;;-139.48;100.00;61774.03;5035575;28;20103;-73
2022/03/27 12:04:49;;;;;;;21.02;12.80;;;;;;;-139.48;100.00;61774.03;5020619;28;20044;-71
2022/03/27 12:07:52;;;;;;;16.30;11.18;;;;;;;-139.48;100.00;61774.03;5006650;28;20131;-70
2022/03/27 12:10:45;;;;;;;17.00;11.52;;;;;;;-139.48;100.00;61774.03;5020810;28;20047;-71
2022/03/27 12:13:34;;;;;;;23.23;10.80;;;;;;;-139.48;100.00;61774.03;5020617;28;20040;-70
2022/03/27 12:16:25;;;;;;;17.80;11.10;;;;;;;-139.48;100.00;61774.03;5035266;28;20053;-70
2022/03/27 12:19:15;;;;;;;19.17;11.77;;;;;;;-139.48;100.00;61774.03;5020660;28;20056;-70
2022/03/27 12:22:00;;;;;;;20.40;11.02;;;;;;;-139.48;100.00;61774.03;5007019;28;20258;-70
2022/03/27 12:24:44;;;;;;;16.48;11.38;;;;;;;-139.48;100.00;61774.03;5020465;28;20052;-70
2022/03/27 12:30:33;;;;;;;16.90;11.07;;;;;;;-139.48;100.00;61774.03;5023097;28;20508;-70